Time;durP1;ratioP1;P1;durP2;ratioP2;P2;SDS_P1;SDS_P2;PMS_P1;PMS_P2;Temp;Humidity;BMP_temperature;BMP_pressure;BME280_temperature;BME280_humidity;BME280_pressure;Samples;Min_cycle;Max_cycle;Signal;HPM_P1;HPM_P2
2022/11/28 00:00:28;;;;;;;18.75;6.95;;;5.90;99.90;;;;;;5083560;28;20032;-70
2022/11/28 00:02:53;;;;;;;18.35;8.65;;;5.90;99.90;;;;;;5083523;28;20418;-71
2022/11/28 00:05:19;;;;;;;18.05;7.78;;;5.90;99.90;;;;;;5083918;28;20037;-72
2022/11/28 00:07:44;;;;;;;15.13;7.13;;;5.80;99.90;;;;;;5083821;28;20036;-70
2022/11/28 00:10:10;;;;;;;17.17;6.95;;;5.80;99.90;;;;;;5083866;28;20035;-70
2022/11/28 00:12:36;;;;;;;16.65;7.82;;;5.80;99.90;;;;;;5083962;28;20077;-71
2022/11/28 00:15:04;;;;;;;15.23;6.82;;;5.80;99.90;;;;;;5074708;28;20024;-70
2022/11/28 00:17:29;;;;;;;14.52;7.22;;;5.80;99.90;;;;;;5083774;28;20111;-69
2022/11/28 00:19:55;;;;;;;17.08;6.65;;;5.90;99.90;;;;;;5084045;28;20035;-69
2022/11/28 00:22:21;;;;;;;16.23;7.63;;;5.80;99.90;;;;;;5082997;28;20033;-70
2022/11/28 00:24:46;;;;;;;16.02;8.13;;;5.80;99.90;;;;;;5083808;28;20040;-69
2022/11/28 00:27:12;;;;;;;17.42;7.10;;;5.80;99.90;;;;;;5082922;28;20195;-71
2022/11/28 00:29:38;;;;;;;18.27;7.32;;;5.80;99.90;;;;;;5083242;28;20052;-71
2022/11/28 00:32:05;;;;;;;17.42;7.10;;;5.80;99.90;;;;;;5082392;28;20020;-71
2022/11/28 00:34:30;;;;;;;16.98;6.82;;;5.70;99.90;;;;;;5083803;28;20084;-69
2022/11/28 00:36:56;;;;;;;19.52;7.88;;;5.80;99.90;;;;;;5083661;28;20044;-70
2022/11/28 00:39:22;;;;;;;8.27;4.90;;;5.80;99.90;;;;;;5082626;28;20032;-71
2022/11/28 00:41:49;;;;;;;20.50;6.88;;;5.70;99.90;;;;;;5082384;28;20043;-71
2022/11/28 00:44:14;;;;;;;17.90;7.65;;;5.80;99.90;;;;;;5081630;28;20063;-70
2022/11/28 00:46:40;;;;;;;18.38;8.23;;;5.70;99.90;;;;;;5081031;28;20029;-70
2022/11/28 00:49:06;;;;;;;22.05;7.82;;;5.70;99.90;;;;;;5081978;28;20616;-71
2022/11/28 00:51:33;;;;;;;12.27;6.63;;;5.70;99.90;;;;;;5081751;28;20025;-70
2022/11/28 00:54:00;;;;;;;18.00;7.43;;;5.80;99.90;;;;;;5078745;28;20464;-70
2022/11/28 00:56:29;;;;;;;20.05;6.95;;;5.70;99.90;;;;;;5080349;28;20024;-71
2022/11/28 00:58:56;;;;;;;20.95;8.30;;;5.70;99.90;;;;;;5081349;28;20028;-72
2022/11/28 01:01:24;;;;;;;14.30;6.82;;;5.70;99.90;;;;;;5079865;28;20047;-71
2022/11/28 01:03:51;;;;;;;14.88;7.72;;;5.70;99.90;;;;;;5080946;28;20063;-72
2022/11/28 01:06:23;;;;;;;19.10;6.90;;;5.70;99.90;;;;;;5082084;28;20031;-72
2022/11/28 01:08:49;;;;;;;13.35;7.35;;;5.70;99.90;;;;;;5080913;28;20028;-72
2022/11/28 01:11:15;;;;;;;15.45;7.78;;;5.60;99.90;;;;;;5080454;28;20400;-71
2022/11/28 01:13:40;;;;;;;15.57;7.53;;;5.60;99.90;;;;;;5080905;28;20036;-70
2022/11/28 01:16:07;;;;;;;13.85;7.53;;;5.60;99.90;;;;;;5079798;28;20040;-71
2022/11/28 01:18:33;;;;;;;14.05;5.40;;;5.60;99.90;;;;;;5080308;28;20461;-70
2022/11/28 01:20:58;;;;;;;12.73;6.60;;;5.60;99.90;;;;;;5080435;28;20096;-71
2022/11/28 01:23:24;;;;;;;19.20;7.25;;;5.70;99.90;;;;;;5081085;28;20027;-71
2022/11/28 01:25:50;;;;;;;20.48;6.45;;;5.70;99.90;;;;;;5082734;28;20017;-73
2022/11/28 01:28:16;;;;;;;17.50;6.72;;;5.60;99.90;;;;;;5085271;28;20082;-71
2022/11/28 01:30:41;;;;;;;17.77;7.95;;;5.70;99.90;;;;;;5084939;28;20048;-70
2022/11/28 01:33:07;;;;;;;14.35;7.28;;;5.60;99.90;;;;;;5085182;28;20021;-70
2022/11/28 01:35:33;;;;;;;13.20;6.50;;;5.60;99.90;;;;;;5085372;28;20021;-70
2022/11/28 01:37:58;;;;;;;15.43;5.20;;;5.60;99.90;;;;;;5085320;28;20392;-72
2022/11/28 01:40:24;;;;;;;19.50;6.95;;;5.60;99.90;;;;;;5085352;28;20059;-70
2022/11/28 01:42:49;;;;;;;15.75;6.97;;;5.60;99.90;;;;;;5085048;28;20020;-72
2022/11/28 01:45:26;;;;;;;16.48;7.68;;;5.60;99.90;;;;;;5084682;28;20056;-70
2022/11/28 01:47:56;;;;;;;13.32;5.90;;;5.60;99.90;;;;;;5085075;28;20035;-71
2022/11/28 01:50:23;;;;;;;15.98;6.93;;;5.70;99.90;;;;;;5085451;28;20024;-70
2022/11/28 01:52:52;;;;;;;10.88;6.53;;;5.70;99.90;;;;;;5084959;28;20025;-71
2022/11/28 01:55:21;;;;;;;15.48;5.68;;;5.70;99.90;;;;;;5066895;28;20032;-70
2022/11/28 01:57:47;;;;;;;13.07;6.82;;;5.70;99.90;;;;;;5066821;28;20036;-72
2022/11/28 02:00:17;;;;;;;16.05;7.35;;;5.70;99.90;;;;;;5079996;28;20024;-69
2022/11/28 02:03:02;;;;;;;18.25;7.18;;;5.70;99.90;;;;;;5073134;28;20033;-69
2022/11/28 02:05:28;;;;;;;14.02;6.15;;;5.70;99.90;;;;;;5049800;28;20090;-70
2022/11/28 02:07:53;;;;;;;15.82;7.03;;;5.70;99.90;;;;;;5079423;28;20037;-70
2022/11/28 02:10:26;;;;;;;17.77;7.93;;;5.70;99.90;;;;;;5078495;28;20389;-70
2022/11/28 02:13:13;;;;;;;14.47;6.70;;;5.80;99.90;;;;;;5084844;28;20024;-70
2022/11/28 02:15:56;;;;;;;14.25;6.60;;;5.80;99.90;;;;;;5082760;28;20024;-71
2022/11/28 02:18:47;;;;;;;10.60;5.22;;;5.80;99.90;;;;;;5075918;28;20029;-69
2022/11/28 02:21:31;;;;;;;11.50;5.80;;;5.80;99.90;;;;;;5080736;28;20511;-71
2022/11/28 02:24:18;;;;;;;11.90;5.75;;;5.80;99.90;;;;;;5084643;28;20119;-71
2022/11/28 02:27:10;;;;;;;7.78;3.60;;;5.80;99.90;;;;;;5083688;28;20050;-70
2022/11/28 02:30:04;;;;;;;13.25;6.78;;;5.80;99.90;;;;;;5082027;28;20123;-70
2022/11/28 02:32:46;;;;;;;15.25;6.22;;;5.80;99.90;;;;;;5080315;28;20436;-69
2022/11/28 02:35:34;;;;;;;14.60;6.22;;;5.80;99.90;;;;;;5089771;28;20436;-70
2022/11/28 02:38:18;;;;;;;12.55;6.43;;;5.80;99.90;;;;;;5079480;28;20029;-69
2022/11/28 02:41:17;;;;;;;15.48;6.50;;;5.80;99.90;;;;;;5084203;28;20538;-68
2022/11/28 02:43:46;;;;;;;18.70;7.25;;;5.80;99.90;;;;;;5078884;28;20048;-67
2022/11/28 02:46:23;;;;;;;9.27;4.82;;;5.80;99.90;;;;;;5083570;28;20092;-69
2022/11/28 02:49:04;;;;;;;17.00;6.57;;;5.90;99.90;;;;;;5083655;28;20041;-70
2022/11/28 02:51:50;;;;;;;12.38;6.70;;;5.90;99.90;;;;;;5084057;28;20131;-69
2022/11/28 02:54:18;;;;;;;13.00;5.97;;;5.90;99.90;;;;;;5084015;28;20514;-67
2022/11/28 02:56:51;;;;;;;15.65;6.25;;;5.90;99.90;;;;;;5076974;28;20028;-68
2022/11/28 02:59:29;;;;;;;14.27;6.35;;;5.80;99.90;;;;;;5065687;28;20041;-67
2022/11/28 03:01:55;;;;;;;13.88;5.75;;;5.80;99.90;;;;;;5063243;28;20111;-73
2022/11/28 03:04:50;;;;;;;8.65;5.13;;;5.80;99.90;;;;;;5062127;28;20033;-71
2022/11/28 03:07:49;;;;;;;16.48;6.38;;;5.80;99.90;;;;;;5072396;28;20032;-67
2022/11/28 03:10:32;;;;;;;14.05;6.00;;;5.80;99.90;;;;;;5082017;28;20071;-69
2022/11/28 03:13:06;;;;;;;15.45;6.25;;;5.70;99.90;;;;;;5083646;28;20461;-69
2022/11/28 03:15:45;;;;;;;14.82;7.22;;;5.70;99.90;;;;;;5084647;28;20051;-67
2022/11/28 03:18:16;;;;;;;13.13;6.10;;;5.70;99.90;;;;;;5077127;28;20032;-70
2022/11/28 03:21:05;;;;;;;11.82;6.38;;;5.80;99.90;;;;;;5051020;28;20048;-70
2022/11/28 03:23:52;;;;;;;14.35;6.97;;;5.80;99.90;;;;;;5062624;28;20029;-70
2022/11/28 03:26:29;;;;;;;13.15;5.63;;;5.80;99.90;;;;;;5063483;28;20617;-69
2022/11/28 03:29:02;;;;;;;14.95;6.55;;;5.80;99.90;;;;;;5065154;28;20056;-69
2022/11/28 03:31:45;;;;;;;15.35;6.55;;;5.80;99.90;;;;;;5082941;28;20103;-70
2022/11/28 03:34:18;;;;;;;13.00;6.57;;;5.80;99.90;;;;;;5082631;28;20036;-69
2022/11/28 03:36:49;;;;;;;11.77;6.40;;;5.80;99.90;;;;;;5083429;28;20103;-67
2022/11/28 03:39:19;;;;;;;15.57;6.35;;;5.80;99.90;;;;;;5083288;28;20078;-69
2022/11/28 03:41:52;;;;;;;12.15;5.68;;;5.70;99.90;;;;;;5083210;28;20025;-71
2022/11/28 03:44:36;;;;;;;13.13;6.30;;;5.80;99.90;;;;;;5082876;28;20119;-70
2022/11/28 03:47:04;;;;;;;12.95;6.25;;;5.80;99.90;;;;;;5083197;28;20040;-69
2022/11/28 03:49:36;;;;;;;11.20;5.30;;;5.80;99.90;;;;;;5082099;28;20020;-71
2022/11/28 03:52:05;;;;;;;11.20;5.45;;;5.80;99.90;;;;;;5087548;28;20103;-70
2022/11/28 03:55:13;;;;;;;12.68;6.38;;;5.80;99.90;;;;;;5065140;28;20028;-69
2022/11/28 03:57:47;;;;;;;11.25;5.93;;;5.80;99.90;;;;;;5055344;28;20058;-69
2022/11/28 04:00:13;;;;;;;15.63;6.25;;;5.80;99.90;;;;;;5089872;28;20025;-70
2022/11/28 04:02:56;;;;;;;10.98;5.72;;;5.80;99.90;;;;;;5084461;28;20070;-69
2022/11/28 04:05:41;;;;;;;12.98;5.95;;;5.90;99.90;;;;;;5082902;28;20039;-70
2022/11/28 04:08:20;;;;;;;12.57;5.80;;;5.90;99.90;;;;;;5084436;28;20040;-70
2022/11/28 04:11:07;;;;;;;11.23;5.38;;;5.90;99.90;;;;;;5083216;28;20074;-69
2022/11/28 04:13:59;;;;;;;13.15;6.13;;;5.80;99.90;;;;;;5086181;28;20032;-69
2022/11/28 04:16:39;;;;;;;10.65;5.40;;;5.90;99.90;;;;;;5076477;28;20035;-71
2022/11/28 04:19:29;;;;;;;15.23;5.82;;;5.90;99.90;;;;;;5103850;28;20483;-69
2022/11/28 04:22:14;;;;;;;15.75;6.03;;;5.90;99.90;;;;;;5104650;28;20032;-69
2022/11/28 04:24:41;;;;;;;;;;;5.90;99.90;;;;;;5104585;28;20042;-69
2022/11/28 04:27:14;;;;;;;14.55;6.07;;;5.90;99.90;;;;;;5104066;28;19908;-68
2022/11/28 04:29:47;;;;;;;11.70;4.95;;;5.80;99.90;;;;;;5098740;28;20070;-70
2022/11/28 04:32:14;;;;;;;12.32;6.75;;;5.80;99.90;;;;;;5093637;28;20039;-68
2022/11/28 04:34:45;;;;;;;12.73;6.05;;;5.80;99.90;;;;;;5102616;28;20028;-68
2022/11/28 04:37:14;;;;;;;15.38;6.47;;;5.80;99.90;;;;;;5103936;28;20024;-69
2022/11/28 04:39:43;;;;;;;11.02;5.47;;;5.80;99.90;;;;;;5104108;28;20028;-68
2022/11/28 04:42:14;;;;;;;17.88;6.47;;;5.80;99.90;;;;;;5104329;28;20034;-68
2022/11/28 04:44:50;;;;;;;11.65;6.05;;;5.70;99.90;;;;;;5104134;28;20488;-71
2022/11/28 04:47:16;;;;;;;11.98;6.40;;;5.80;99.90;;;;;;5104197;28;20028;-69
2022/11/28 04:49:42;;;;;;;14.90;6.57;;;5.80;99.90;;;;;;5102942;28;20016;-71
2022/11/28 04:52:35;;;;;;;18.73;6.97;;;5.80;99.90;;;;;;5084191;28;20038;-69
2022/11/28 04:55:34;;;;;;;16.50;6.97;;;5.70;99.90;;;;;;5083318;28;20056;-69
2022/11/28 04:58:18;;;;;;;16.65;7.55;;;5.80;99.90;;;;;;5083926;28;20029;-70
2022/11/28 05:00:46;;;;;;;14.23;7.22;;;5.80;99.90;;;;;;5084383;28;20085;-69
2022/11/28 05:03:12;;;;;;;17.77;7.22;;;5.70;99.90;;;;;;5087401;28;20035;-70
2022/11/28 05:05:49;;;;;;;16.23;7.38;;;5.80;99.90;;;;;;5087553;28;20048;-69
2022/11/28 05:08:17;;;;;;;12.73;6.72;;;5.70;99.90;;;;;;5087756;28;20427;-70
2022/11/28 05:10:43;;;;;;;11.73;6.18;;;5.70;99.90;;;;;;5087281;28;20044;-70
2022/11/28 05:13:09;;;;;;;11.93;6.72;;;5.70;99.90;;;;;;5087006;28;20028;-69
2022/11/28 05:15:35;;;;;;;12.15;6.78;;;5.70;99.90;;;;;;5086750;28;20063;-69
2022/11/28 05:18:01;;;;;;;16.95;7.57;;;5.60;99.90;;;;;;5085371;28;20121;-70
2022/11/28 05:20:27;;;;;;;15.45;7.32;;;5.60;99.90;;;;;;5086798;28;20021;-70
2022/11/28 05:22:52;;;;;;;13.93;6.38;;;5.60;99.90;;;;;;5086872;28;20077;-71
2022/11/28 05:25:18;;;;;;;12.57;6.57;;;5.60;99.90;;;;;;5087123;28;20473;-71
2022/11/28 05:27:43;;;;;;;13.27;6.18;;;5.60;99.90;;;;;;5069182;28;20051;-68
2022/11/28 05:30:10;;;;;;;15.07;6.70;;;5.50;99.90;;;;;;5086640;28;20049;-72
2022/11/28 05:32:36;;;;;;;11.98;6.88;;;5.50;99.90;;;;;;5078314;28;20059;-68
2022/11/28 05:35:03;;;;;;;15.70;7.22;;;5.50;99.90;;;;;;5099484;28;20028;-68
2022/11/28 05:37:28;;;;;;;14.40;6.88;;;5.50;99.90;;;;;;5105910;28;20058;-69
2022/11/28 05:39:54;;;;;;;12.40;4.60;;;5.50;99.90;;;;;;5106018;28;20024;-71
2022/11/28 05:42:20;;;;;;;12.90;7.05;;;5.50;99.90;;;;;;5106806;28;20058;-69
2022/11/28 05:44:46;;;;;;;16.58;6.90;;;5.40;99.90;;;;;;5103973;28;20039;-70
2022/11/28 05:47:12;;;;;;;18.63;7.45;;;5.50;99.90;;;;;;5105807;28;20024;-68
2022/11/28 05:49:38;;;;;;;12.02;6.32;;;5.50;99.90;;;;;;5105176;28;20607;-68
2022/11/28 05:52:03;;;;;;;20.60;6.97;;;5.40;99.90;;;;;;5105158;28;20024;-70
2022/11/28 05:54:30;;;;;;;17.65;7.22;;;5.40;99.90;;;;;;5105400;28;20035;-71
2022/11/28 05:56:55;;;;;;;13.30;6.90;;;5.40;99.90;;;;;;5105374;28;20032;-69
2022/11/28 05:59:21;;;;;;;12.63;7.15;;;5.40;99.90;;;;;;5105498;28;20167;-69
2022/11/28 06:01:47;;;;;;;14.13;7.30;;;5.50;99.90;;;;;;5105298;28;20035;-68
2022/11/28 06:04:12;;;;;;;16.15;7.05;;;5.40;99.90;;;;;;5104842;28;20994;-70
2022/11/28 06:06:38;;;;;;;15.50;6.82;;;5.40;99.90;;;;;;5105254;28;20036;-68
2022/11/28 06:09:04;;;;;;;15.77;5.95;;;5.40;99.90;;;;;;5105206;28;20028;-69
2022/11/28 06:11:31;;;;;;;16.55;7.05;;;5.40;99.90;;;;;;5104539;28;20020;-71
2022/11/28 06:13:57;;;;;;;14.20;7.38;;;5.40;99.90;;;;;;5100431;28;20794;-69
2022/11/28 06:16:25;;;;;;;13.05;7.07;;;5.40;99.90;;;;;;5103332;28;20056;-70
2022/11/28 06:19:00;;;;;;;12.07;5.90;;;5.40;99.90;;;;;;5104907;28;20028;-68
2022/11/28 06:21:27;;;;;;;10.68;4.90;;;5.40;99.90;;;;;;5102764;28;20035;-69
2022/11/28 06:23:53;;;;;;;18.30;7.97;;;5.40;99.90;;;;;;5104368;28;20032;-72
2022/11/28 06:26:21;;;;;;;18.42;8.00;;;5.40;99.90;;;;;;5104868;28;20048;-69
2022/11/28 06:28:48;;;;;;;20.42;7.97;;;5.30;99.90;;;;;;5104666;28;21143;-69
2022/11/28 06:31:15;;;;;;;22.10;7.75;;;5.30;99.90;;;;;;5102163;28;20027;-70
2022/11/28 06:33:41;;;;;;;14.38;7.28;;;5.30;99.90;;;;;;5081981;28;20036;-70
2022/11/28 06:36:08;;;;;;;14.35;7.28;;;5.30;99.90;;;;;;5084560;28;20032;-72
2022/11/28 06:38:34;;;;;;;13.93;6.90;;;5.30;99.90;;;;;;5083089;28;20344;-70
2022/11/28 06:41:03;;;;;;;15.05;8.13;;;5.30;99.90;;;;;;5084058;28;20048;-71
2022/11/28 06:43:29;;;;;;;15.77;7.53;;;5.30;99.90;;;;;;5083616;28;20031;-70
2022/11/28 06:45:55;;;;;;;19.98;7.30;;;5.40;99.90;;;;;;5078938;28;20048;-70
2022/11/28 06:48:21;;;;;;;15.18;7.75;;;5.40;99.90;;;;;;5082095;28;20956;-70
2022/11/28 06:50:47;;;;;;;19.02;8.38;;;5.30;99.90;;;;;;5081561;28;20025;-70
2022/11/28 06:53:13;;;;;;;10.48;5.60;;;5.30;99.90;;;;;;5083420;28;20032;-68
2022/11/28 06:55:39;;;;;;;19.65;8.38;;;5.30;99.90;;;;;;5078960;28;20028;-69
2022/11/28 06:58:04;;;;;;;19.23;8.30;;;5.40;99.90;;;;;;5084233;28;20088;-73
2022/11/28 07:00:30;;;;;;;13.13;6.68;;;5.30;99.90;;;;;;5083237;28;20056;-72
2022/11/28 07:02:56;;;;;;;22.85;7.53;;;5.30;99.90;;;;;;5079819;28;20051;-67
2022/11/28 07:05:26;;;;;;;17.85;8.82;;;5.30;99.90;;;;;;5074486;28;20053;-70
2022/11/28 07:07:52;;;;;;;22.23;8.27;;;5.30;99.90;;;;;;5050729;28;20127;-68
2022/11/28 07:10:19;;;;;;;14.57;7.47;;;5.30;99.90;;;;;;5061477;28;20039;-70
2022/11/28 07:12:44;;;;;;;14.05;7.13;;;5.20;99.90;;;;;;5070147;28;20328;-68
2022/11/28 07:15:11;;;;;;;18.33;7.72;;;5.30;99.90;;;;;;5080411;28;20043;-74
2022/11/28 07:17:36;;;;;;;14.38;6.57;;;5.30;99.90;;;;;;5087752;28;20056;-71
2022/11/28 07:20:03;;;;;;;18.60;7.95;;;5.20;99.90;;;;;;5083413;28;20043;-70
2022/11/28 07:22:29;;;;;;;16.88;8.50;;;5.20;99.90;;;;;;5063768;28;20048;-71
2022/11/28 07:24:58;;;;;;;19.92;8.70;;;5.20;99.90;;;;;;5096540;28;20038;-71
2022/11/28 07:27:24;;;;;;;21.50;8.30;;;5.20;99.90;;;;;;5103783;28;20059;-71
2022/11/28 07:29:50;;;;;;;18.23;8.63;;;5.30;99.90;;;;;;5099513;28;20044;-72
2022/11/28 07:32:15;;;;;;;20.00;8.40;;;5.20;99.90;;;;;;5084057;28;20060;-70
2022/11/28 07:34:41;;;;;;;19.65;8.93;;;5.20;99.90;;;;;;5083707;28;20752;-72
2022/11/28 07:37:07;;;;;;;21.60;8.88;;;5.20;99.90;;;;;;5081714;28;20033;-68
2022/11/28 07:39:33;;;;;;;17.48;9.23;;;5.20;99.90;;;;;;5083720;28;20028;-68
2022/11/28 07:41:58;;;;;;;21.30;6.95;;;5.20;99.90;;;;;;5083863;28;20028;-68
2022/11/28 07:44:24;;;;;;;15.68;7.53;;;5.20;99.90;;;;;;5082890;28;20036;-70
2022/11/28 07:46:49;;;;;;;22.10;8.27;;;5.30;99.90;;;;;;5077847;28;20472;-70
2022/11/28 07:49:15;;;;;;;15.57;7.78;;;5.20;99.90;;;;;;5084053;28;20059;-72
2022/11/28 07:51:41;;;;;;;20.80;8.75;;;5.20;99.90;;;;;;5084429;28;20024;-71
2022/11/28 07:54:07;;;;;;;19.95;8.38;;;5.20;99.90;;;;;;5082816;28;20100;-71
2022/11/28 07:56:36;;;;;;;18.67;8.30;;;5.20;99.90;;;;;;5083705;28;20051;-70
2022/11/28 07:59:03;;;;;;;20.40;8.93;;;5.20;99.90;;;;;;5083713;28;20472;-71
2022/11/28 08:01:32;;;;;;;18.77;8.43;;;5.20;99.90;;;;;;5082825;28;20115;-69
2022/11/28 08:03:59;;;;;;;16.35;7.47;;;5.20;99.90;;;;;;5081540;28;20051;-66
2022/11/28 08:06:27;;;;;;;16.88;9.30;;;5.20;99.90;;;;;;5082035;28;20028;-66
2022/11/28 08:08:54;;;;;;;15.25;7.32;;;5.20;99.90;;;;;;5082635;28;20036;-68
2022/11/28 08:11:22;;;;;;;21.58;8.60;;;5.20;99.90;;;;;;5082891;28;20074;-70
2022/11/28 08:13:48;;;;;;;17.30;7.95;;;5.30;99.90;;;;;;5083507;28;20020;-68
2022/11/28 08:16:19;;;;;;;19.20;9.38;;;5.20;99.90;;;;;;5082630;28;20032;-69
2022/11/28 08:18:46;;;;;;;19.83;8.77;;;5.20;99.90;;;;;;5067464;28;20040;-71
2022/11/28 08:21:18;;;;;;;16.80;9.20;;;5.20;99.90;;;;;;5082808;28;20532;-68
2022/11/28 08:23:44;;;;;;;19.63;9.38;;;5.20;99.90;;;;;;5082474;28;20503;-69
2022/11/28 08:26:12;;;;;;;17.42;8.93;;;5.20;99.90;;;;;;5081804;28;20439;-70
2022/11/28 08:28:39;;;;;;;21.13;8.23;;;5.20;99.90;;;;;;5081516;28;20071;-67
2022/11/28 08:31:19;;;;;;;20.25;9.23;;;5.20;99.90;;;;;;5081514;28;20040;-72
2022/11/28 08:33:47;;;;;;;24.08;9.60;;;5.20;99.90;;;;;;5082417;28;20054;-69
2022/11/28 08:36:14;;;;;;;16.90;9.13;;;5.20;99.90;;;;;;5086889;28;20084;-71
2022/11/28 08:38:40;;;;;;;22.95;9.73;;;5.10;99.90;;;;;;5087023;28;20046;-70
2022/11/28 08:41:09;;;;;;;18.70;9.88;;;5.20;99.90;;;;;;5085513;28;20032;-69
2022/11/28 08:43:36;;;;;;;19.55;8.95;;;5.20;99.90;;;;;;5086548;28;20025;-70
2022/11/28 08:46:03;;;;;;;20.52;8.95;;;5.20;99.90;;;;;;5086564;28;20060;-71
2022/11/28 08:48:29;;;;;;;21.20;9.32;;;5.10;99.90;;;;;;5088131;28;20025;-70
2022/11/28 08:50:55;;;;;;;19.25;9.02;;;5.20;99.90;;;;;;5087989;28;20028;-68
2022/11/28 08:53:21;;;;;;;17.73;9.38;;;5.20;99.90;;;;;;5085509;28;20043;-69
2022/11/28 08:55:47;;;;;;;19.20;9.18;;;5.20;99.90;;;;;;5082781;28;20025;-69
2022/11/28 08:58:13;;;;;;;22.10;8.80;;;5.20;99.90;;;;;;5083826;28;20036;-69
2022/11/28 09:00:41;;;;;;;15.73;8.13;;;5.20;99.90;;;;;;5074794;28;20116;-71
2022/11/28 09:03:07;;;;;;;21.90;7.88;;;5.20;99.90;;;;;;5073902;28;20155;-73
2022/11/28 09:05:33;;;;;;;20.02;6.78;;;5.20;99.90;;;;;;5070219;28;20048;-70
2022/11/28 09:07:59;;;;;;;14.07;7.15;;;5.20;99.90;;;;;;5065358;28;20373;-69
2022/11/28 09:10:24;;;;;;;17.50;8.75;;;5.10;99.90;;;;;;5058754;28;20093;-70
2022/11/28 09:12:51;;;;;;;18.45;7.53;;;5.10;99.90;;;;;;5066768;28;20051;-67
2022/11/28 09:15:18;;;;;;;17.90;8.82;;;5.10;99.90;;;;;;5076188;28;20039;-69
2022/11/28 09:17:44;;;;;;;14.82;6.78;;;5.20;99.90;;;;;;5066620;28;20416;-68
2022/11/28 09:20:10;;;;;;;17.63;8.23;;;5.10;99.90;;;;;;5077935;28;20024;-70
2022/11/28 09:22:36;;;;;;;20.17;8.18;;;5.10;99.90;;;;;;5066965;28;20026;-69
2022/11/28 09:25:01;;;;;;;21.30;9.13;;;5.20;99.90;;;;;;5066859;28;20064;-72
2022/11/28 09:27:27;;;;;;;24.35;8.43;;;5.20;99.90;;;;;;5078136;28;20033;-71
2022/11/28 09:29:53;;;;;;;19.38;8.52;;;5.20;99.90;;;;;;5084586;28;20458;-71
2022/11/28 09:32:18;;;;;;;18.67;7.63;;;5.10;99.90;;;;;;5083482;28;20031;-71
2022/11/28 09:34:44;;;;;;;18.58;8.05;;;5.20;99.90;;;;;;5085561;28;20070;-69
2022/11/28 09:37:09;;;;;;;20.23;8.57;;;5.20;99.90;;;;;;5083962;28;20036;-71
2022/11/28 09:39:35;;;;;;;16.02;6.50;;;5.10;99.90;;;;;;5084809;28;20036;-71
2022/11/28 09:42:27;;;;;;;14.45;6.80;;;5.10;99.90;;;;;;5085316;28;20040;-68
2022/11/28 09:45:02;;;;;;;20.52;9.23;;;5.10;99.90;;;;;;5085204;28;20124;-70
2022/11/28 09:47:30;;;;;;;18.85;9.27;;;5.10;99.90;;;;;;5074914;28;20029;-70
2022/11/28 09:50:19;;;;;;;24.35;9.90;;;5.10;99.90;;;;;;5081391;28;20098;-70
2022/11/28 09:52:48;;;;;;;21.02;9.07;;;5.20;99.90;;;;;;5085334;28;20032;-71
2022/11/28 09:55:40;;;;;;;21.40;9.30;;;5.10;99.90;;;;;;5086507;28;20034;-71
2022/11/28 09:58:18;;;;;;;17.45;8.43;;;5.10;99.90;;;;;;5084742;28;20036;-72
2022/11/28 10:01:11;;;;;;;18.85;9.15;;;5.20;99.90;;;;;;5079431;28;20060;-74
2022/11/28 10:03:36;;;;;;;19.73;9.32;;;5.20;99.90;;;;;;5079404;28;20036;-71
2022/11/28 10:06:24;;;;;;;19.67;8.27;;;5.20;99.90;;;;;;5078939;28;20039;-70
2022/11/28 10:08:56;;;;;;;24.38;9.75;;;5.20;99.90;;;;;;5083184;28;20088;-70
2022/11/28 10:11:37;;;;;;;20.80;9.27;;;5.20;99.90;;;;;;5080216;28;20033;-71
2022/11/28 10:14:28;;;;;;;23.50;9.93;;;5.30;99.90;;;;;;5080835;28;20115;-70
2022/11/28 10:17:13;;;;;;;26.70;9.75;;;5.20;99.90;;;;;;5062460;28;20044;-72
2022/11/28 10:20:02;;;;;;;19.60;9.30;;;5.20;99.90;;;;;;5077633;28;20033;-69
2022/11/28 10:22:43;;;;;;;19.83;9.05;;;5.30;99.90;;;;;;5066908;28;20036;-71
2022/11/28 10:25:25;;;;;;;26.55;9.50;;;5.20;99.90;;;;;;5085098;28;20044;-71
2022/11/28 10:27:51;;;;;;;28.35;10.55;;;5.20;99.90;;;;;;5085821;28;20025;-72
2022/11/28 10:30:32;;;;;;;20.60;10.13;;;5.30;99.90;;;;;;5079414;28;20048;-72
2022/11/28 10:33:27;;;;;;;21.67;10.07;;;5.30;99.90;;;;;;5081448;28;20033;-70
2022/11/28 10:35:56;;;;;;;16.25;8.25;;;5.30;99.90;;;;;;5064208;28;20040;-71
2022/11/28 10:38:26;;;;;;;18.85;9.18;;;5.40;99.90;;;;;;5083584;28;20031;-69
2022/11/28 10:41:11;;;;;;;23.00;10.27;;;5.30;99.90;;;;;;5084633;28;20029;-71
2022/11/28 10:43:58;;;;;;;21.77;9.85;;;5.40;99.90;;;;;;5084662;28;20048;-69
2022/11/28 10:46:51;;;;;;;23.83;9.80;;;5.40;99.90;;;;;;5085465;28;20024;-69
2022/11/28 10:49:25;;;;;;;21.67;9.85;;;5.40;99.90;;;;;;5085299;28;20039;-68
2022/11/28 10:51:51;;;;;;;25.33;10.18;;;5.40;99.90;;;;;;5080058;28;20032;-71
2022/11/28 10:54:38;;;;;;;22.00;10.55;;;5.40;99.90;;;;;;5079798;28;20024;-68
2022/11/28 10:57:19;;;;;;;18.65;9.10;;;5.40;99.90;;;;;;5077512;28;20025;-68
2022/11/28 11:00:19;;;;;;;20.75;10.93;;;5.40;99.90;;;;;;5070715;28;20039;-71
2022/11/28 11:02:49;;;;;;;24.85;10.15;;;5.40;99.90;;;;;;5075259;28;20044;-69
2022/11/28 11:05:23;;;;;;;22.55;8.68;;;5.40;99.90;;;;;;5080488;28;20043;-73
2022/11/28 11:07:52;;;;;;;24.95;9.05;;;5.40;99.90;;;;;;5080230;28;20025;-70
2022/11/28 11:10:24;;;;;;;21.55;9.75;;;5.40;99.90;;;;;;5083185;28;20028;-70
2022/11/28 11:12:51;;;;;;;23.60;9.68;;;5.40;99.90;;;;;;5080987;28;20055;-71
2022/11/28 11:15:31;;;;;;;20.85;11.02;;;5.40;99.90;;;;;;5081703;28;20028;-70
2022/11/28 11:18:04;;;;;;;28.73;11.15;;;5.40;99.90;;;;;;5083296;28;20021;-71
2022/11/28 11:20:30;;;;;;;20.83;11.43;;;5.40;99.90;;;;;;5079767;28;20029;-71
2022/11/28 11:22:58;;;;;;;20.23;8.88;;;5.50;99.90;;;;;;5080894;28;20030;-70
2022/11/28 11:25:26;;;;;;;19.02;9.93;;;5.50;99.90;;;;;;5082520;28;20041;-70
2022/11/28 11:27:59;;;;;;;22.20;10.98;;;5.40;99.90;;;;;;5084239;28;20017;-70
2022/11/28 11:30:37;;;;;;;26.05;11.50;;;5.50;99.90;;;;;;5079163;28;20048;-70
2022/11/28 11:33:05;;;;;;;23.23;10.68;;;5.50;99.90;;;;;;5076071;28;20040;-70
2022/11/28 11:35:41;;;;;;;26.10;11.40;;;5.50;99.90;;;;;;5075413;28;20028;-70
2022/11/28 11:38:19;;;;;;;23.48;11.02;;;5.60;99.90;;;;;;5082198;28;20314;-71
2022/11/28 11:40:45;;;;;;;26.35;11.90;;;5.60;99.90;;;;;;5081207;28;20411;-72
2022/11/28 11:43:37;;;;;;;22.70;10.43;;;5.70;99.90;;;;;;5067863;28;20043;-72
2022/11/28 11:46:12;;;;;;;27.25;13.30;;;5.70;99.90;;;;;;5073939;28;20052;-71
2022/11/28 11:48:43;;;;;;;24.50;11.20;;;5.60;99.90;;;;;;5080131;28;20031;-68
2022/11/28 11:51:22;;;;;;;28.13;10.88;;;5.70;99.90;;;;;;5081007;28;20017;-71
2022/11/28 11:53:58;;;;;;;28.92;11.05;;;5.70;99.90;;;;;;5083429;28;20119;-72
2022/11/28 11:56:24;;;;;;;23.88;10.50;;;5.70;99.90;;;;;;5080376;28;20020;-69
2022/11/28 11:58:53;;;;;;;23.52;11.75;;;5.70;99.90;;;;;;5082095;28;20189;-71
2022/11/28 12:01:20;;;;;;;25.42;12.20;;;5.60;99.90;;;;;;5080751;28;20028;-70
2022/11/28 12:03:54;;;;;;;27.45;12.00;;;5.70;99.90;;;;;;5080023;28;20028;-70
2022/11/28 12:06:26;;;;;;;23.67;11.63;;;5.70;99.90;;;;;;5078895;28;20067;-73
2022/11/28 12:09:06;;;;;;;25.35;11.35;;;5.70;99.90;;;;;;5080451;28;20046;-70
2022/11/28 12:11:39;;;;;;;30.25;12.68;;;5.70;99.90;;;;;;5081265;28;20032;-71
2022/11/28 12:14:22;;;;;;;26.38;11.30;;;5.70;99.90;;;;;;5081392;28;20057;-69
2022/11/28 12:17:07;;;;;;;26.02;10.80;;;5.70;99.90;;;;;;5082996;28;20040;-70
2022/11/28 12:19:48;;;;;;;26.85;12.45;;;5.70;99.90;;;;;;5060606;28;20036;-71
2022/11/28 12:22:46;;;;;;;24.02;11.27;;;5.70;99.90;;;;;;5082758;28;20036;-69
2022/11/28 12:25:45;;;;;;;28.48;11.35;;;5.70;99.90;;;;;;5052440;28;20753;-69
2022/11/28 12:28:37;;;;;;;27.55;11.13;;;5.70;99.90;;;;;;5044077;28;20468;-71
2022/11/28 12:31:28;;;;;;;26.08;10.93;;;5.70;99.90;;;;;;5076286;28;20048;-69
2022/11/28 12:34:02;;;;;;;22.95;11.05;;;5.70;99.90;;;;;;5080278;28;20048;-70
2022/11/28 12:36:49;;;;;;;29.63;10.75;;;5.70;99.90;;;;;;5081352;28;20040;-70
2022/11/28 12:39:17;;;;;;;26.67;10.57;;;5.70;99.90;;;;;;5074684;28;20032;-70
2022/11/28 12:42:04;;;;;;;23.83;11.18;;;5.60;99.90;;;;;;5073179;28;20059;-70
2022/11/28 12:45:03;;;;;;;25.80;11.15;;;5.60;99.90;;;;;;5074998;28;20062;-69
2022/11/28 12:47:52;;;;;;;24.75;11.73;;;5.60;99.90;;;;;;5071455;28;20028;-71
2022/11/28 12:50:34;;;;;;;24.15;11.77;;;5.70;99.90;;;;;;5078701;28;20050;-69
2022/11/28 12:53:14;;;;;;;21.42;11.38;;;5.60;99.90;;;;;;5070113;28;20039;-71
2022/11/28 12:55:47;;;;;;;25.35;12.35;;;5.60;99.90;;;;;;5065448;28;20025;-72
2022/11/28 12:58:25;;;;;;;20.60;10.77;;;5.60;99.90;;;;;;5071566;28;20546;-71
2022/11/28 13:00:59;;;;;;;27.88;11.98;;;5.60;99.90;;;;;;5083311;28;20029;-71
2022/11/28 13:04:10;;;;;;;25.17;12.30;;;5.60;99.90;;;;;;5083287;28;20076;-71
2022/11/28 13:06:50;;;;;;;22.27;11.82;;;5.70;99.90;;;;;;5016781;28;20046;-69
2022/11/28 13:09:29;;;;;;;29.10;11.48;;;5.70;99.90;;;;;;5058349;28;20513;-70
2022/11/28 13:12:25;;;;;;;28.02;12.55;;;5.70;99.90;;;;;;5080256;28;20046;-71